sensor_id;sensor_type;location;lat;lon;timestamp;pressure;altitude;pressure_sealevel;temperature;humidity
55291;BME280;41155;39.768;2.712;2023-03-03T00:01:26;101483.47;;;7.03;73.64
55291;BME280;41155;39.768;2.712;2023-03-03T00:03:52;101480.13;;;7.08;73.99
55291;BME280;41155;39.768;2.712;2023-03-03T00:06:19;101491.28;;;7.11;74.48
55291;BME280;41155;39.768;2.712;2023-03-03T00:08:44;101485.94;;;7.05;74.61
55291;BME280;41155;39.768;2.712;2023-03-03T00:11:10;101490.25;;;7.06;75.01
55291;BME280;41155;39.768;2.712;2023-03-03T00:13:50;101477.06;;;6.91;75.58
55291;BME280;41155;39.768;2.712;2023-03-03T00:16:34;101492.53;;;7.02;75.66
55291;BME280;41155;39.768;2.712;2023-03-03T00:19:01;101476.22;;;6.97;75.20
55291;BME280;41155;39.768;2.712;2023-03-03T00:21:32;101469.00;;;6.91;74.94
55291;BME280;41155;39.768;2.712;2023-03-03T00:24:24;101443.84;;;6.72;74.99
55291;BME280;41155;39.768;2.712;2023-03-03T00:27:01;101473.13;;;6.93;75.19
55291;BME280;41155;39.768;2.712;2023-03-03T00:29:34;101487.19;;;6.95;75.10
55291;BME280;41155;39.768;2.712;2023-03-03T00:32:41;101479.34;;;7.00;75.30
55291;BME280;41155;39.768;2.712;2023-03-03T00:35:01;101478.09;;;7.03;74.91
55291;BME280;41155;39.768;2.712;2023-03-03T00:37:41;101485.50;;;7.08;74.65
55291;BME280;41155;39.768;2.712;2023-03-03T00:40:35;101484.69;;;7.07;75.05
55291;BME280;41155;39.768;2.712;2023-03-03T00:43:01;101482.63;;;7.09;75.16
55291;BME280;41155;39.768;2.712;2023-03-03T00:48:15;101474.97;;;6.99;74.78
55291;BME280;41155;39.768;2.712;2023-03-03T00:50:43;101484.72;;;7.00;74.96
55291;BME280;41155;39.768;2.712;2023-03-03T00:53:20;101477.25;;;7.02;74.77
55291;BME280;41155;39.768;2.712;2023-03-03T00:55:47;101477.69;;;7.06;74.70
55291;BME280;41155;39.768;2.712;2023-03-03T00:58:13;101473.13;;;7.00;75.17
55291;BME280;41155;39.768;2.712;2023-03-03T01:00:39;101475.41;;;7.10;75.40
55291;BME280;41155;39.768;2.712;2023-03-03T01:03:07;101477.44;;;7.21;74.78
55291;BME280;41155;39.768;2.712;2023-03-03T01:05:35;101476.41;;;7.22;74.86
55291;BME280;41155;39.768;2.712;2023-03-03T01:08:01;101470.00;;;7.16;74.46
55291;BME280;41155;39.768;2.712;2023-03-03T01:10:29;101422.97;;;6.87;74.70
55291;BME280;41155;39.768;2.712;2023-03-03T01:12:56;101456.16;;;7.13;74.55
55291;BME280;41155;39.768;2.712;2023-03-03T01:15:23;101469.81;;;7.18;75.01
55291;BME280;41155;39.768;2.712;2023-03-03T01:17:49;101473.09;;;7.20;74.61
55291;BME280;41155;39.768;2.712;2023-03-03T01:20:15;101469.56;;;7.19;75.09
55291;BME280;41155;39.768;2.712;2023-03-03T01:22:41;101464.22;;;7.19;75.13
55291;BME280;41155;39.768;2.712;2023-03-03T01:25:07;101439.84;;;7.08;74.98
55291;BME280;41155;39.768;2.712;2023-03-03T01:27:34;101452.66;;;7.19;75.11
55291;BME280;41155;39.768;2.712;2023-03-03T01:30:00;101460.91;;;7.24;75.35
55291;BME280;41155;39.768;2.712;2023-03-03T01:32:26;101435.94;;;7.10;75.52
55291;BME280;41155;39.768;2.712;2023-03-03T01:34:52;101419.78;;;7.17;74.34
55291;BME280;41155;39.768;2.712;2023-03-03T01:37:19;101455.91;;;7.34;75.07
55291;BME280;41155;39.768;2.712;2023-03-03T01:39:52;101422.53;;;7.04;75.83
55291;BME280;41155;39.768;2.712;2023-03-03T01:42:18;101451.16;;;7.23;75.33
55291;BME280;41155;39.768;2.712;2023-03-03T01:44:44;101445.63;;;7.18;75.60
55291;BME280;41155;39.768;2.712;2023-03-03T01:47:26;101446.03;;;7.21;75.40
55291;BME280;41155;39.768;2.712;2023-03-03T01:49:59;101431.81;;;7.08;75.43
55291;BME280;41155;39.768;2.712;2023-03-03T01:52:41;101442.72;;;7.19;75.55
55291;BME280;41155;39.768;2.712;2023-03-03T01:55:21;101441.69;;;7.14;76.08
55291;BME280;41155;39.768;2.712;2023-03-03T01:57:54;101437.38;;;7.13;75.58
55291;BME280;41155;39.768;2.712;2023-03-03T02:00:21;101437.16;;;7.08;75.65
55291;BME280;41155;39.768;2.712;2023-03-03T02:02:47;101407.88;;;6.93;75.69
55291;BME280;41155;39.768;2.712;2023-03-03T02:05:13;101432.66;;;7.01;75.88
55291;BME280;41155;39.768;2.712;2023-03-03T02:07:40;101425.22;;;7.04;76.18
55291;BME280;41155;39.768;2.712;2023-03-03T02:10:11;101415.72;;;6.88;76.19
55291;BME280;41155;39.768;2.712;2023-03-03T02:12:44;101423.59;;;6.89;76.11
55291;BME280;41155;39.768;2.712;2023-03-03T02:15:16;101420.69;;;6.84;76.46
55291;BME280;41155;39.768;2.712;2023-03-03T02:17:42;101416.78;;;6.80;76.58
55291;BME280;41155;39.768;2.712;2023-03-03T02:20:14;101411.19;;;6.82;76.68
55291;BME280;41155;39.768;2.712;2023-03-03T02:22:50;101409.16;;;6.77;76.43
55291;BME280;41155;39.768;2.712;2023-03-03T02:25:26;101381.94;;;6.47;77.11
55291;BME280;41155;39.768;2.712;2023-03-03T02:27:55;101398.22;;;6.65;76.78
55291;BME280;41155;39.768;2.712;2023-03-03T02:30:22;101407.50;;;6.76;77.47
55291;BME280;41155;39.768;2.712;2023-03-03T02:32:48;101405.44;;;6.78;77.36
55291;BME280;41155;39.768;2.712;2023-03-03T02:35:36;101397.34;;;6.85;77.85
55291;BME280;41155;39.768;2.712;2023-03-03T02:43:26;101391.19;;;6.77;78.41
55291;BME280;41155;39.768;2.712;2023-03-03T02:45:53;101376.53;;;6.67;78.37
55291;BME280;41155;39.768;2.712;2023-03-03T02:48:19;101388.94;;;6.74;78.50
55291;BME280;41155;39.768;2.712;2023-03-03T02:50:44;101404.16;;;6.87;78.16
55291;BME280;41155;39.768;2.712;2023-03-03T02:53:10;101385.19;;;6.82;78.54
55291;BME280;41155;39.768;2.712;2023-03-03T02:55:35;101387.44;;;6.92;77.99
55291;BME280;41155;39.768;2.712;2023-03-03T02:58:00;101386.22;;;6.94;77.90
55291;BME280;41155;39.768;2.712;2023-03-03T03:00:26;101389.22;;;7.18;77.84
55291;BME280;41155;39.768;2.712;2023-03-03T03:02:51;101375.38;;;7.14;76.25
55291;BME280;41155;39.768;2.712;2023-03-03T03:05:17;101385.94;;;7.09;77.46
55291;BME280;41155;39.768;2.712;2023-03-03T03:07:42;101379.34;;;7.05;77.74
55291;BME280;41155;39.768;2.712;2023-03-03T03:10:08;101365.50;;;7.01;77.40
55291;BME280;41155;39.768;2.712;2023-03-03T03:12:34;101369.41;;;7.06;77.33
55291;BME280;41155;39.768;2.712;2023-03-03T03:14:59;101379.13;;;7.07;77.49
55291;BME280;41155;39.768;2.712;2023-03-03T03:17:25;101363.88;;;7.00;77.69
55291;BME280;41155;39.768;2.712;2023-03-03T03:19:50;101354.34;;;7.05;77.37
55291;BME280;41155;39.768;2.712;2023-03-03T03:22:16;101372.72;;;7.08;77.35
55291;BME280;41155;39.768;2.712;2023-03-03T03:24:41;101370.47;;;7.05;77.34
55291;BME280;41155;39.768;2.712;2023-03-03T03:27:07;101358.72;;;6.92;77.37
55291;BME280;41155;39.768;2.712;2023-03-03T03:29:33;101361.84;;;6.89;77.80
55291;BME280;41155;39.768;2.712;2023-03-03T03:31:58;101380.19;;;6.99;77.99
55291;BME280;41155;39.768;2.712;2023-03-03T03:34:24;101371.09;;;7.00;77.66
55291;BME280;41155;39.768;2.712;2023-03-03T03:36:49;101380.16;;;7.06;77.98
55291;BME280;41155;39.768;2.712;2023-03-03T03:39:14;101365.78;;;6.87;78.67
55291;BME280;41155;39.768;2.712;2023-03-03T03:41:40;101376.69;;;6.98;77.48
55291;BME280;41155;39.768;2.712;2023-03-03T03:44:05;101374.81;;;6.99;77.85
55291;BME280;41155;39.768;2.712;2023-03-03T03:46:31;101373.19;;;6.98;77.91
55291;BME280;41155;39.768;2.712;2023-03-03T03:48:56;101366.16;;;6.90;77.72
55291;BME280;41155;39.768;2.712;2023-03-03T03:51:22;101364.53;;;6.89;78.28
55291;BME280;41155;39.768;2.712;2023-03-03T03:53:47;101368.00;;;6.96;78.31
55291;BME280;41155;39.768;2.712;2023-03-03T03:56:12;101366.78;;;6.92;78.43
55291;BME280;41155;39.768;2.712;2023-03-03T03:58:40;101359.78;;;6.85;78.11
55291;BME280;41155;39.768;2.712;2023-03-03T04:01:06;101366.59;;;6.87;78.52
55291;BME280;41155;39.768;2.712;2023-03-03T04:03:33;101345.13;;;6.81;78.45
55291;BME280;41155;39.768;2.712;2023-03-03T04:05:58;101365.31;;;6.96;78.08
55291;BME280;41155;39.768;2.712;2023-03-03T04:08:23;101366.75;;;6.99;78.00
55291;BME280;41155;39.768;2.712;2023-03-03T04:10:49;101367.00;;;6.97;78.29
55291;BME280;41155;39.768;2.712;2023-03-03T04:13:15;101362.44;;;6.98;78.29
55291;BME280;41155;39.768;2.712;2023-03-03T04:15:40;101357.06;;;6.98;78.31
55291;BME280;41155;39.768;2.712;2023-03-03T04:18:06;101360.34;;;7.00;78.32
55291;BME280;41155;39.768;2.712;2023-03-03T04:20:31;101348.38;;;6.96;78.11
55291;BME280;41155;39.768;2.712;2023-03-03T04:22:57;101360.53;;;7.05;78.18
55291;BME280;41155;39.768;2.712;2023-03-03T04:25:23;101344.47;;;6.98;78.57
55291;BME280;41155;39.768;2.712;2023-03-03T04:27:48;101361.31;;;7.19;77.84
55291;BME280;41155;39.768;2.712;2023-03-03T04:30:15;101358.22;;;7.22;77.27
55291;BME280;41155;39.768;2.712;2023-03-03T04:32:41;101356.81;;;7.13;77.50
55291;BME280;41155;39.768;2.712;2023-03-03T04:35:07;101352.47;;;7.12;77.49
55291;BME280;41155;39.768;2.712;2023-03-03T04:37:33;101347.94;;;7.12;77.85
55291;BME280;41155;39.768;2.712;2023-03-03T04:39:59;101342.56;;;7.12;77.96
55291;BME280;41155;39.768;2.712;2023-03-03T04:42:25;101341.28;;;7.21;78.08
55291;BME280;41155;39.768;2.712;2023-03-03T04:44:52;101329.72;;;7.14;78.00
55291;BME280;41155;39.768;2.712;2023-03-03T04:47:17;101346.22;;;7.24;77.69
55291;BME280;41155;39.768;2.712;2023-03-03T04:49:43;101325.00;;;7.10;78.44
55291;BME280;41155;39.768;2.712;2023-03-03T04:52:08;101346.41;;;7.30;78.09
55291;BME280;41155;39.768;2.712;2023-03-03T04:54:34;101337.94;;;7.26;77.68
55291;BME280;41155;39.768;2.712;2023-03-03T04:56:59;101344.09;;;7.33;77.92
55291;BME280;41155;39.768;2.712;2023-03-03T04:59:25;101336.06;;;7.33;77.78
55291;BME280;41155;39.768;2.712;2023-03-03T05:01:50;101344.06;;;7.46;77.82
55291;BME280;41155;39.768;2.712;2023-03-03T05:04:16;101305.28;;;7.29;77.90
55291;BME280;41155;39.768;2.712;2023-03-03T05:06:41;101339.69;;;7.45;77.67
55291;BME280;41155;39.768;2.712;2023-03-03T05:09:07;101320.94;;;7.39;76.95
55291;BME280;41155;39.768;2.712;2023-03-03T05:11:33;101348.56;;;7.53;77.73
55291;BME280;41155;39.768;2.712;2023-03-03T05:13:59;101336.81;;;7.40;77.42
55291;BME280;41155;39.768;2.712;2023-03-03T05:16:25;101315.19;;;7.35;77.47
55291;BME280;41155;39.768;2.712;2023-03-03T05:18:50;101320.75;;;7.34;77.40
55291;BME280;41155;39.768;2.712;2023-03-03T05:21:15;101325.94;;;7.29;77.66
55291;BME280;41155;39.768;2.712;2023-03-03T05:23:41;101328.00;;;7.33;78.15
55291;BME280;41155;39.768;2.712;2023-03-03T05:26:07;101320.56;;;7.29;78.20
55291;BME280;41155;39.768;2.712;2023-03-03T05:28:32;101341.78;;;7.43;78.40
55291;BME280;41155;39.768;2.712;2023-03-03T05:30:58;101331.69;;;7.39;78.59
55291;BME280;41155;39.768;2.712;2023-03-03T05:33:23;101350.00;;;7.48;78.36
55291;BME280;41155;39.768;2.712;2023-03-03T05:35:53;101334.56;;;7.44;78.59
55291;BME280;41155;39.768;2.712;2023-03-03T05:38:19;101350.97;;;7.67;78.50
55291;BME280;41155;39.768;2.712;2023-03-03T05:40:45;101327.94;;;7.46;78.44
55291;BME280;41155;39.768;2.712;2023-03-03T05:43:11;101348.22;;;7.74;77.73
55291;BME280;41155;39.768;2.712;2023-03-03T05:45:36;101354.91;;;7.65;77.87
55291;BME280;41155;39.768;2.712;2023-03-03T05:48:02;101357.16;;;7.68;78.59
55291;BME280;41155;39.768;2.712;2023-03-03T05:50:30;101341.88;;;7.62;78.51
55291;BME280;41155;39.768;2.712;2023-03-03T05:52:55;101336.16;;;7.52;79.34
55291;BME280;41155;39.768;2.712;2023-03-03T05:55:21;101355.47;;;7.74;79.07
55291;BME280;41155;39.768;2.712;2023-03-03T05:57:47;101353.34;;;7.82;78.84
55291;BME280;41155;39.768;2.712;2023-03-03T06:00:13;101358.28;;;7.85;78.02
55291;BME280;41155;39.768;2.712;2023-03-03T06:02:40;101352.81;;;7.99;78.18
55291;BME280;41155;39.768;2.712;2023-03-03T06:05:06;101358.19;;;7.99;78.24
55291;BME280;41155;39.768;2.712;2023-03-03T06:07:32;101347.66;;;7.97;78.04
55291;BME280;41155;39.768;2.712;2023-03-03T06:09:57;101355.72;;;7.97;78.71
55291;BME280;41155;39.768;2.712;2023-03-03T06:12:23;101341.38;;;8.03;78.48
55291;BME280;41155;39.768;2.712;2023-03-03T06:14:48;101357.63;;;8.15;77.81
55291;BME280;41155;39.768;2.712;2023-03-03T06:17:14;101351.00;;;8.18;78.24
55291;BME280;41155;39.768;2.712;2023-03-03T06:19:39;101343.59;;;8.13;78.13
55291;BME280;41155;39.768;2.712;2023-03-03T06:22:06;101363.94;;;8.27;78.37
55291;BME280;41155;39.768;2.712;2023-03-03T06:24:33;101352.81;;;8.24;78.08
55291;BME280;41155;39.768;2.712;2023-03-03T06:26:59;101359.25;;;8.23;78.45
55291;BME280;41155;39.768;2.712;2023-03-03T06:29:24;101344.09;;;8.28;78.12
55291;BME280;41155;39.768;2.712;2023-03-03T06:31:50;101347.97;;;8.32;77.83
55291;BME280;41155;39.768;2.712;2023-03-03T06:34:16;101370.69;;;8.43;78.09
55291;BME280;41155;39.768;2.712;2023-03-03T06:36:41;101358.91;;;8.37;78.82
55291;BME280;41155;39.768;2.712;2023-03-03T06:39:07;101383.25;;;8.49;79.19
55291;BME280;41155;39.768;2.712;2023-03-03T06:41:32;101353.78;;;8.29;79.52
55291;BME280;41155;39.768;2.712;2023-03-03T06:43:57;101372.19;;;8.32;79.95
55291;BME280;41155;39.768;2.712;2023-03-03T06:46:25;101377.25;;;8.47;80.06
55291;BME280;41155;39.768;2.712;2023-03-03T06:48:50;101378.84;;;8.55;79.77
55291;BME280;41155;39.768;2.712;2023-03-03T06:51:45;101392.16;;;8.50;80.42
55291;BME280;41155;39.768;2.712;2023-03-03T06:54:13;101375.31;;;8.29;82.07
55291;BME280;41155;39.768;2.712;2023-03-03T06:56:40;101390.72;;;8.47;81.79
55291;BME280;41155;39.768;2.712;2023-03-03T06:59:15;101388.91;;;8.41;82.48
55291;BME280;41155;39.768;2.712;2023-03-03T07:01:42;101352.00;;;8.23;83.04
55291;BME280;41155;39.768;2.712;2023-03-03T07:06:39;101393.22;;;8.67;81.99
55291;BME280;41155;39.768;2.712;2023-03-03T07:09:18;101396.31;;;8.71;81.50
55291;BME280;41155;39.768;2.712;2023-03-03T07:11:44;101389.97;;;8.83;81.60
55291;BME280;41155;39.768;2.712;2023-03-03T07:14:15;101387.34;;;8.77;82.10
55291;BME280;41155;39.768;2.712;2023-03-03T07:16:42;101410.69;;;8.83;82.10
55291;BME280;41155;39.768;2.712;2023-03-03T07:19:30;101420.03;;;8.80;82.24
55291;BME280;41155;39.768;2.712;2023-03-03T07:21:56;101414.03;;;8.78;82.59
55291;BME280;41155;39.768;2.712;2023-03-03T07:24:27;101419.84;;;9.00;82.14
55291;BME280;41155;39.768;2.712;2023-03-03T07:27:26;101422.00;;;8.92;83.00
55291;BME280;41155;39.768;2.712;2023-03-03T07:29:54;101397.81;;;8.85;82.76
55291;BME280;41155;39.768;2.712;2023-03-03T07:34:55;101430.44;;;8.77;84.16
55291;BME280;41155;39.768;2.712;2023-03-03T07:37:30;101429.59;;;8.76;84.08
55291;BME280;41155;39.768;2.712;2023-03-03T07:39:59;101447.75;;;8.63;84.32
55291;BME280;41155;39.768;2.712;2023-03-03T07:42:39;101445.53;;;8.53;85.57
55291;BME280;41155;39.768;2.712;2023-03-03T07:45:26;101444.16;;;8.44;87.44
55291;BME280;41155;39.768;2.712;2023-03-03T07:48:12;101428.69;;;8.32;88.57
55291;BME280;41155;39.768;2.712;2023-03-03T07:50:40;101454.41;;;8.28;89.80
55291;BME280;41155;39.768;2.712;2023-03-03T07:53:14;101398.78;;;7.90;90.52
55291;BME280;41155;39.768;2.712;2023-03-03T07:55:46;101460.22;;;8.25;91.15
55291;BME280;41155;39.768;2.712;2023-03-03T08:03:44;101446.53;;;8.27;91.13
55291;BME280;41155;39.768;2.712;2023-03-03T08:06:34;101464.91;;;8.36;90.91
55291;BME280;41155;39.768;2.712;2023-03-03T08:14:37;101463.25;;;8.42;89.85
55291;BME280;41155;39.768;2.712;2023-03-03T08:17:34;101477.09;;;8.46;90.42
55291;BME280;41155;39.768;2.712;2023-03-03T08:20:28;101490.28;;;8.54;91.04
55291;BME280;41155;39.768;2.712;2023-03-03T08:22:52;101490.31;;;8.47;91.31
55291;BME280;41155;39.768;2.712;2023-03-03T08:25:17;101484.88;;;8.54;91.86
55291;BME280;41155;39.768;2.712;2023-03-03T08:27:43;101487.31;;;8.62;90.47
55291;BME280;41155;39.768;2.712;2023-03-03T08:30:09;101449.38;;;8.38;90.64
55291;BME280;41155;39.768;2.712;2023-03-03T08:32:34;101466.94;;;8.48;90.64
55291;BME280;41155;39.768;2.712;2023-03-03T08:35:00;101498.09;;;8.62;90.65
55291;BME280;41155;39.768;2.712;2023-03-03T08:37:25;101501.59;;;8.63;90.45
55291;BME280;41155;39.768;2.712;2023-03-03T08:39:51;101501.53;;;8.69;91.32
55291;BME280;41155;39.768;2.712;2023-03-03T08:42:16;101502.97;;;8.72;91.96
55291;BME280;41155;39.768;2.712;2023-03-03T08:44:42;101459.41;;;8.56;90.27
55291;BME280;41155;39.768;2.712;2023-03-03T08:47:08;101482.97;;;8.86;90.11
55291;BME280;41155;39.768;2.712;2023-03-03T08:49:33;101502.38;;;8.95;90.28
55291;BME280;41155;39.768;2.712;2023-03-03T08:51:59;101486.94;;;9.02;90.07
55291;BME280;41155;39.768;2.712;2023-03-03T08:54:25;101501.50;;;9.19;89.10
55291;BME280;41155;39.768;2.712;2023-03-03T08:56:50;101503.38;;;9.19;90.06
55291;BME280;41155;39.768;2.712;2023-03-03T08:59:16;101495.63;;;9.29;89.78
55291;BME280;41155;39.768;2.712;2023-03-03T09:01:42;101494.56;;;9.67;88.72
55291;BME280;41155;39.768;2.712;2023-03-03T09:04:09;101476.34;;;9.81;86.60
55291;BME280;41155;39.768;2.712;2023-03-03T09:06:34;101494.38;;;9.99;85.99
55291;BME280;41155;39.768;2.712;2023-03-03T09:09:00;101504.19;;;10.23;86.55
55291;BME280;41155;39.768;2.712;2023-03-03T09:11:27;101499.47;;;10.37;83.94
55291;BME280;41155;39.768;2.712;2023-03-03T09:14:01;101478.78;;;10.31;84.27
55291;BME280;41155;39.768;2.712;2023-03-03T09:16:29;101504.72;;;10.74;81.77
55291;BME280;41155;39.768;2.712;2023-03-03T09:18:58;101502.38;;;10.89;80.69
55291;BME280;41155;39.768;2.712;2023-03-03T09:21:30;101492.50;;;11.06;78.81
55291;BME280;41155;39.768;2.712;2023-03-03T09:23:59;101499.31;;;11.32;78.61
55291;BME280;41155;39.768;2.712;2023-03-03T09:26:45;101486.25;;;11.29;76.49
55291;BME280;41155;39.768;2.712;2023-03-03T09:31:42;101471.50;;;11.61;76.33
55291;BME280;41155;39.768;2.712;2023-03-03T09:34:19;101500.56;;;12.06;75.21
55291;BME280;41155;39.768;2.712;2023-03-03T09:36:46;101491.56;;;12.17;75.82
55291;BME280;41155;39.768;2.712;2023-03-03T09:39:23;101508.00;;;12.27;75.87
55291;BME280;41155;39.768;2.712;2023-03-03T10:09:36;101521.00;;;12.93;70.51
55291;BME280;41155;39.768;2.712;2023-03-03T10:34:07;101531.66;;;19.24;52.18
55291;BME280;41155;39.768;2.712;2023-03-03T10:52:48;101506.66;;;31.83;21.60
55291;BME280;41155;39.768;2.712;2023-03-03T10:58:16;101507.34;;;34.43;18.81
55291;BME280;41155;39.768;2.712;2023-03-03T11:09:46;101505.38;;;36.68;14.93
55291;BME280;41155;39.768;2.712;2023-03-03T11:12:34;101502.72;;;37.05;14.27
55291;BME280;41155;39.768;2.712;2023-03-03T11:18:20;101496.97;;;36.64;15.40
55291;BME280;41155;39.768;2.712;2023-03-03T11:20:52;101497.81;;;37.92;15.18
55291;BME280;41155;39.768;2.712;2023-03-03T11:23:26;101504.22;;;35.56;15.92
55291;BME280;41155;39.768;2.712;2023-03-03T11:26:02;101501.31;;;33.05;18.61
55291;BME280;41155;39.768;2.712;2023-03-03T11:31:48;101511.34;;;27.78;23.36
55291;BME280;41155;39.768;2.712;2023-03-03T11:39:49;101483.34;;;23.12;30.41
55291;BME280;41155;39.768;2.712;2023-03-03T11:47:38;101484.72;;;20.02;34.02
55291;BME280;41155;39.768;2.712;2023-03-03T11:50:19;101493.81;;;19.07;35.82
55291;BME280;41155;39.768;2.712;2023-03-03T11:52:51;101498.16;;;18.84;37.51
55291;BME280;41155;39.768;2.712;2023-03-03T11:55:29;101462.13;;;18.37;38.17
55291;BME280;41155;39.768;2.712;2023-03-03T11:58:33;101496.47;;;18.14;38.08
55291;BME280;41155;39.768;2.712;2023-03-03T12:01:13;101499.91;;;17.75;37.16
55291;BME280;41155;39.768;2.712;2023-03-03T12:03:49;101499.25;;;17.29;36.98
55291;BME280;41155;39.768;2.712;2023-03-03T12:25:50;101465.50;;;16.48;42.78
55291;BME280;41155;39.768;2.712;2023-03-03T12:28:30;101460.06;;;16.53;42.73
55291;BME280;41155;39.768;2.712;2023-03-03T12:47:27;101449.59;;;21.72;32.64
55291;BME280;41155;39.768;2.712;2023-03-03T12:55:32;101438.72;;;28.89;22.42
55291;BME280;41155;39.768;2.712;2023-03-03T13:06:26;101441.34;;;31.91;19.31
55291;BME280;41155;39.768;2.712;2023-03-03T13:26:45;101433.28;;;30.37;21.24
55291;BME280;41155;39.768;2.712;2023-03-03T13:29:42;101433.03;;;27.32;22.53
55291;BME280;41155;39.768;2.712;2023-03-03T13:31:54;101436.72;;;26.21;24.28
55291;BME280;41155;39.768;2.712;2023-03-03T13:39:34;101431.00;;;23.69;27.14
55291;BME280;41155;39.768;2.712;2023-03-03T13:42:07;101429.56;;;22.84;28.57
55291;BME280;41155;39.768;2.712;2023-03-03T13:44:41;101426.25;;;22.42;29.10
55291;BME280;41155;39.768;2.712;2023-03-03T13:56:00;101401.00;;;19.72;34.92
55291;BME280;41155;39.768;2.712;2023-03-03T13:58:34;101422.94;;;19.72;34.82
55291;BME280;41155;39.768;2.712;2023-03-03T14:01:03;101425.47;;;19.69;35.48
55291;BME280;41155;39.768;2.712;2023-03-03T14:04:44;101419.75;;;20.03;35.22
55291;BME280;41155;39.768;2.712;2023-03-03T14:06:36;101377.31;;;21.07;31.47
55291;BME280;41155;39.768;2.712;2023-03-03T14:11:36;101402.91;;;23.50;28.75
55291;BME280;41155;39.768;2.712;2023-03-03T14:24:21;101393.75;;;24.71;27.03
55291;BME280;41155;39.768;2.712;2023-03-03T14:26:56;101395.47;;;24.85;26.19
55291;BME280;41155;39.768;2.712;2023-03-03T14:31:52;101391.28;;;23.88;27.45
55291;BME280;41155;39.768;2.712;2023-03-03T14:34:39;101394.91;;;23.22;28.06
55291;BME280;41155;39.768;2.712;2023-03-03T14:37:25;101391.22;;;22.56;29.23
55291;BME280;41155;39.768;2.712;2023-03-03T14:40:21;101399.19;;;21.90;30.94
55291;BME280;41155;39.768;2.712;2023-03-03T14:50:43;101384.31;;;20.39;33.06
55291;BME280;41155;39.768;2.712;2023-03-03T14:53:13;101388.88;;;20.30;33.50
55291;BME280;41155;39.768;2.712;2023-03-03T14:55:41;101386.41;;;19.96;34.70
55291;BME280;41155;39.768;2.712;2023-03-03T14:58:23;101384.38;;;19.26;35.48
55291;BME280;41155;39.768;2.712;2023-03-03T15:00:49;101379.31;;;18.90;36.78
55291;BME280;41155;39.768;2.712;2023-03-03T15:03:25;101388.34;;;18.90;36.39
55291;BME280;41155;39.768;2.712;2023-03-03T15:05:54;101371.53;;;18.73;36.62
55291;BME280;41155;39.768;2.712;2023-03-03T15:08:34;101389.34;;;18.70;37.10
55291;BME280;41155;39.768;2.712;2023-03-03T15:11:26;101389.91;;;18.43;37.35
55291;BME280;41155;39.768;2.712;2023-03-03T15:13:52;101386.00;;;18.20;37.48
55291;BME280;41155;39.768;2.712;2023-03-03T15:16:31;101385.44;;;18.18;38.12
55291;BME280;41155;39.768;2.712;2023-03-03T15:24:44;101364.97;;;17.81;38.80
55291;BME280;41155;39.768;2.712;2023-03-03T15:27:19;101383.44;;;17.95;39.06
55291;BME280;41155;39.768;2.712;2023-03-03T15:32:28;101383.56;;;17.74;38.97
55291;BME280;41155;39.768;2.712;2023-03-03T15:40:53;101389.94;;;17.59;39.42
55291;BME280;41155;39.768;2.712;2023-03-03T15:43:35;101388.25;;;17.69;39.42
55291;BME280;41155;39.768;2.712;2023-03-03T15:46:44;101394.91;;;17.47;39.46
55291;BME280;41155;39.768;2.712;2023-03-03T15:52:24;101396.41;;;17.19;39.32
55291;BME280;41155;39.768;2.712;2023-03-03T16:00:24;101399.25;;;16.78;40.71
55291;BME280;41155;39.768;2.712;2023-03-03T16:03:32;101374.16;;;16.76;41.00
55291;BME280;41155;39.768;2.712;2023-03-03T16:06:15;101401.13;;;16.83;40.25
55291;BME280;41155;39.768;2.712;2023-03-03T16:20:05;101407.44;;;16.17;41.29
55291;BME280;41155;39.768;2.712;2023-03-03T16:22:44;101404.13;;;15.79;42.46
55291;BME280;41155;39.768;2.712;2023-03-03T16:27:48;101410.81;;;15.46;43.78
55291;BME280;41155;39.768;2.712;2023-03-03T16:32:50;101398.84;;;14.89;46.07
55291;BME280;41155;39.768;2.712;2023-03-03T16:35:25;101419.38;;;14.37;46.94
55291;BME280;41155;39.768;2.712;2023-03-03T16:38:01;101422.03;;;14.27;47.53
55291;BME280;41155;39.768;2.712;2023-03-03T16:40:57;101431.84;;;14.01;47.88
55291;BME280;41155;39.768;2.712;2023-03-03T16:46:27;101415.88;;;13.33;50.70
55291;BME280;41155;39.768;2.712;2023-03-03T16:49:32;101408.53;;;13.12;51.71
55291;BME280;41155;39.768;2.712;2023-03-03T16:52:11;101435.19;;;12.81;53.14
55291;BME280;41155;39.768;2.712;2023-03-03T16:54:52;101430.09;;;13.02;53.27
55291;BME280;41155;39.768;2.712;2023-03-03T17:00:19;101441.09;;;12.78;54.50
55291;BME280;41155;39.768;2.712;2023-03-03T17:03:01;101429.31;;;12.68;54.32
55291;BME280;41155;39.768;2.712;2023-03-03T17:11:10;101455.19;;;12.41;57.42
55291;BME280;41155;39.768;2.712;2023-03-03T17:16:29;101466.22;;;11.94;61.39
55291;BME280;41155;39.768;2.712;2023-03-03T17:30:13;101497.50;;;12.02;61.73
55291;BME280;41155;39.768;2.712;2023-03-03T17:41:28;101495.16;;;11.42;63.84
55291;BME280;41155;39.768;2.712;2023-03-03T17:47:01;101501.78;;;11.34;63.48
55291;BME280;41155;39.768;2.712;2023-03-03T17:52:53;101504.94;;;11.31;63.84
55291;BME280;41155;39.768;2.712;2023-03-03T18:06:30;101531.88;;;11.14;63.89
55291;BME280;41155;39.768;2.712;2023-03-03T18:22:49;101531.88;;;10.49;66.62
55291;BME280;41155;39.768;2.712;2023-03-03T18:25:23;101552.25;;;10.63;66.85
55291;BME280;41155;39.768;2.712;2023-03-03T18:30:59;101550.19;;;10.47;65.36
55291;BME280;41155;39.768;2.712;2023-03-03T18:33:40;101555.41;;;10.30;65.67
55291;BME280;41155;39.768;2.712;2023-03-03T18:38:58;101567.78;;;10.19;65.46
55291;BME280;41155;39.768;2.712;2023-03-03T18:41:31;101562.34;;;10.07;65.85
55291;BME280;41155;39.768;2.712;2023-03-03T18:49:08;101573.44;;;9.99;67.31
55291;BME280;41155;39.768;2.712;2023-03-03T18:54:34;101581.91;;;9.84;67.56
55291;BME280;41155;39.768;2.712;2023-03-03T18:57:15;101594.56;;;9.84;67.53
55291;BME280;41155;39.768;2.712;2023-03-03T18:59:52;101557.09;;;9.57;67.50
55291;BME280;41155;39.768;2.712;2023-03-03T19:04:55;101608.94;;;9.78;67.90